Time;durP1;ratioP1;P1;durP2;ratioP2;P2;SDS_P1;SDS_P2;PMS_P1;PMS_P2;Temp;Humidity;BMP_temperature;BMP_pressure;BME280_temperature;BME280_humidity;BME280_pressure;Samples;Min_cycle;Max_cycle;Signal;HPM_P1;HPM_P2
2021/11/22 00:02:13;;;;;;;14.55;10.70;;;26.40;91.20;;;;;;5064161;28;20321;-53
2021/11/22 00:04:40;;;;;;;12.70;8.75;;;26.40;91.20;;;;;;5063986;28;20025;-46
2021/11/22 00:07:06;;;;;;;9.40;7.57;;;26.40;91.20;;;;;;5063515;28;20368;-54
2021/11/22 00:09:33;;;;;;;9.15;7.07;;;26.40;91.30;;;;;;5064336;28;20301;-53
2021/11/22 00:12:01;;;;;;;10.25;6.72;;;26.40;91.30;;;;;;5063558;28;20045;-48
2021/11/22 00:14:27;;;;;;;12.25;10.10;;;26.40;91.50;;;;;;5063716;28;20256;-50
2021/11/22 00:16:54;;;;;;;21.02;17.35;;;26.40;91.40;;;;;;5063765;28;20198;-44
2021/11/22 00:19:20;;;;;;;17.50;15.20;;;26.30;91.40;;;;;;5064150;28;20301;-52
2021/11/22 00:21:47;;;;;;;11.35;9.05;;;26.40;91.30;;;;;;5063711;28;20088;-53
2021/11/22 00:24:15;;;;;;;8.93;6.05;;;26.30;91.20;;;;;;5064238;28;20365;-49
2021/11/22 00:26:41;;;;;;;8.70;5.28;;;26.30;91.20;;;;;;5063583;28;20028;-43
2021/11/22 00:29:08;;;;;;;6.50;4.70;;;26.30;91.20;;;;;;5063876;28;20035;-45
2021/11/22 00:31:35;;;;;;;6.40;4.20;;;26.40;91.20;;;;;;5063848;28;20063;-47
2021/11/22 00:34:01;;;;;;;9.13;3.30;;;26.30;91.10;;;;;;5062487;28;20028;-51
2021/11/22 00:36:28;;;;;;;5.05;2.95;;;26.30;91.00;;;;;;5062392;28;20221;-48
2021/11/22 00:38:55;;;;;;;8.23;2.92;;;26.30;91.20;;;;;;5063695;28;20029;-48
2021/11/22 00:41:21;;;;;;;4.65;2.92;;;26.30;90.90;;;;;;5063398;28;20013;-51
2021/11/22 00:43:48;;;;;;;5.22;2.85;;;26.30;90.90;;;;;;5063476;28;20118;-44
2021/11/22 00:46:14;;;;;;;3.95;2.30;;;26.30;90.90;;;;;;5063380;28;20017;-51
2021/11/22 00:48:41;;;;;;;6.20;2.70;;;26.30;90.90;;;;;;5063706;28;20025;-51
2021/11/22 00:51:08;;;;;;;6.80;2.90;;;26.30;90.80;;;;;;5063548;28;20318;-51
2021/11/22 00:53:34;;;;;;;5.80;3.00;;;26.30;90.80;;;;;;5063420;28;20095;-50
2021/11/22 00:56:01;;;;;;;5.78;2.70;;;26.30;90.70;;;;;;5063148;28;20028;-48
2021/11/22 00:58:28;;;;;;;4.97;2.78;;;26.30;90.80;;;;;;5063629;28;20021;-46
2021/11/22 01:00:54;;;;;;;5.13;2.50;;;26.30;90.70;;;;;;5063384;28;20135;-54
2021/11/22 01:03:21;;;;;;;7.38;6.05;;;26.30;90.60;;;;;;5063694;28;20032;-52
2021/11/22 01:05:47;;;;;;;22.45;18.45;;;26.40;90.60;;;;;;5062919;28;20079;-50
2021/11/22 01:08:14;;;;;;;29.27;23.27;;;26.40;90.60;;;;;;5062512;28;20037;-50
2021/11/22 01:10:40;;;;;;;19.05;12.98;;;26.40;90.50;;;;;;5063389;28;20043;-52
2021/11/22 01:13:08;;;;;;;14.48;10.95;;;26.40;90.40;;;;;;5063392;28;20058;-54
2021/11/22 01:15:35;;;;;;;13.18;10.38;;;26.40;90.40;;;;;;5063059;28;20036;-52
2021/11/22 01:18:02;;;;;;;15.60;9.13;;;26.40;90.40;;;;;;5063502;28;20020;-54
2021/11/22 01:20:33;;;;;;;17.40;8.00;;;26.40;90.40;;;;;;5067231;28;20021;-51
2021/11/22 01:23:04;;;;;;;11.35;7.82;;;26.40;90.50;;;;;;5066999;28;20013;-48
2021/11/22 01:25:31;;;;;;;8.95;6.85;;;26.40;90.40;;;;;;5067153;28;20017;-53
2021/11/22 01:27:58;;;;;;;7.95;5.90;;;26.40;90.40;;;;;;5067013;28;20091;-52
2021/11/22 01:30:25;;;;;;;8.57;5.07;;;26.40;90.40;;;;;;5065896;28;20029;-48
2021/11/22 01:32:54;;;;;;;8.07;5.65;;;26.40;90.50;;;;;;5066972;28;20017;-46
2021/11/22 01:35:22;;;;;;;6.38;5.75;;;26.30;90.40;;;;;;5066965;28;20032;-48
2021/11/22 01:37:52;;;;;;;7.50;5.10;;;26.40;90.40;;;;;;5066664;28;20218;-49
2021/11/22 01:40:25;;;;;;;7.97;4.68;;;26.40;90.40;;;;;;5066841;28;20262;-48
2021/11/22 01:42:53;;;;;;;7.93;5.15;;;26.40;90.30;;;;;;5066531;28;20096;-47
2021/11/22 01:45:21;;;;;;;6.85;5.90;;;26.40;90.60;;;;;;5066888;28;20158;-51
2021/11/22 01:47:48;;;;;;;10.40;6.47;;;26.40;90.40;;;;;;5065681;28;20230;-52
2021/11/22 01:50:20;;;;;;;6.85;5.60;;;26.40;90.50;;;;;;5067015;28;20238;-54
2021/11/22 01:52:49;;;;;;;7.53;4.57;;;26.40;90.50;;;;;;5066895;28;20021;-53
2021/11/22 01:55:18;;;;;;;5.80;4.22;;;26.30;90.40;;;;;;5066823;28;20040;-49
2021/11/22 01:57:47;;;;;;;5.03;3.47;;;26.30;90.40;;;;;;5066358;28;20024;-45
2021/11/22 02:00:23;;;;;;;10.73;4.05;;;26.30;90.30;;;;;;5066820;28;20258;-48
2021/11/22 02:02:50;;;;;;;9.40;3.97;;;26.30;90.30;;;;;;5066363;28;20017;-52
2021/11/22 02:05:17;;;;;;;17.48;4.43;;;26.30;90.40;;;;;;5066266;28;20044;-53
2021/11/22 02:07:44;;;;;;;35.30;6.07;;;26.30;90.40;;;;;;5066418;28;20021;-48
2021/11/22 02:10:13;;;;;;;33.35;5.32;;;26.30;90.40;;;;;;5066783;28;20028;-49
2021/11/22 02:12:40;;;;;;;18.48;3.25;;;26.30;90.40;;;;;;5065905;28;20411;-50
2021/11/22 02:15:12;;;;;;;6.28;2.92;;;26.30;90.40;;;;;;5066729;28;20138;-51
2021/11/22 02:17:41;;;;;;;;;;;26.30;90.40;;;;;;5066188;28;20096;-47
2021/11/22 02:20:11;;;;;;;6.60;3.20;;;26.30;90.40;;;;;;5066612;28;19908;-49
2021/11/22 02:22:38;;;;;;;5.88;2.55;;;26.30;90.40;;;;;;5066162;28;20331;-53
2021/11/22 02:25:09;;;;;;;9.95;2.80;;;26.20;90.30;;;;;;5065908;28;20055;-45
2021/11/22 02:27:37;;;;;;;4.75;2.50;;;26.20;90.30;;;;;;5066094;28;20197;-49
2021/11/22 02:30:10;;;;;;;2.78;2.38;;;26.20;90.20;;;;;;5065331;28;20048;-48
2021/11/22 02:32:37;;;;;;;;;;;26.20;90.20;;;;;;5066412;28;20033;-52
2021/11/22 02:35:05;;;;;;;5.43;2.42;;;26.20;90.10;;;;;;5066443;28;19904;-48
2021/11/22 02:37:32;;;;;;;5.43;2.45;;;26.20;90.10;;;;;;5065841;28;20075;-50
2021/11/22 02:39:59;;;;;;;4.68;2.28;;;26.20;90.00;;;;;;5066203;28;20313;-51
2021/11/22 02:42:31;;;;;;;8.93;2.05;;;26.20;89.90;;;;;;5065175;28;20317;-51
2021/11/22 02:44:58;;;;;;;;;;;26.20;89.80;;;;;;5065933;28;20029;-47
2021/11/22 02:47:27;;;;;;;4.28;1.88;;;26.20;89.50;;;;;;5065708;28;20135;-54
2021/11/22 02:49:53;;;;;;;5.38;2.08;;;26.20;89.50;;;;;;5066045;28;20034;-50
2021/11/22 02:52:20;;;;;;;4.82;2.33;;;26.20;89.60;;;;;;5065499;28;20021;-47
2021/11/22 02:54:47;;;;;;;5.75;1.90;;;26.20;89.50;;;;;;5065886;28;20029;-47
2021/11/22 02:57:15;;;;;;;4.75;1.92;;;26.20;89.80;;;;;;5065402;28;20253;-54
2021/11/22 02:59:42;;;;;;;3.90;1.80;;;26.20;89.10;;;;;;5065731;28;20301;-51
2021/11/22 03:02:12;;;;;;;3.47;1.70;;;26.10;89.00;;;;;;5065544;28;20035;-51
2021/11/22 03:04:42;;;;;;;3.42;1.88;;;26.20;88.90;;;;;;5065842;28;20043;-49
2021/11/22 03:07:10;;;;;;;5.22;2.20;;;26.20;88.70;;;;;;5065011;28;20045;-53
2021/11/22 03:09:37;;;;;;;3.72;2.10;;;26.20;88.80;;;;;;5065687;28;20032;-46
2021/11/22 03:12:06;;;;;;;4.03;2.05;;;26.20;88.60;;;;;;5065179;28;20066;-51
2021/11/22 03:14:34;;;;;;;5.13;2.40;;;26.20;88.50;;;;;;5065313;28;20201;-51
2021/11/22 03:17:01;;;;;;;8.10;2.30;;;26.20;88.50;;;;;;5065088;28;20252;-55
2021/11/22 03:19:28;;;;;;;5.13;2.25;;;26.20;88.70;;;;;;5065425;28;20047;-51
2021/11/22 03:21:55;;;;;;;3.92;2.00;;;26.20;88.70;;;;;;5064893;28;20017;-54
2021/11/22 03:24:21;;;;;;;5.13;2.15;;;26.20;88.60;;;;;;5065337;28;20179;-50
2021/11/22 03:26:48;;;;;;;3.72;2.17;;;26.20;88.50;;;;;;5064853;28;20347;-52
2021/11/22 03:29:15;;;;;;;5.57;2.03;;;26.10;88.60;;;;;;5064771;28;20325;-48
2021/11/22 03:31:42;;;;;;;5.45;1.70;;;26.10;88.60;;;;;;5065109;28;20048;-54
2021/11/22 03:34:11;;;;;;;3.47;2.00;;;26.10;88.40;;;;;;5064022;28;20268;-45
2021/11/22 03:36:38;;;;;;;6.35;2.60;;;26.10;88.40;;;;;;5064708;28;20333;-50
2021/11/22 03:39:32;;;;;;;5.95;2.40;;;26.10;88.20;;;;;;5064954;28;20256;-51
2021/11/22 03:42:03;;;;;;;4.50;3.40;;;26.10;88.10;;;;;;5063515;28;20025;-53
2021/11/22 03:44:32;;;;;;;4.78;2.83;;;26.10;88.10;;;;;;5065036;28;20020;-49
2021/11/22 03:47:00;;;;;;;3.97;2.90;;;26.10;88.20;;;;;;5064454;28;20025;-50
2021/11/22 03:49:27;;;;;;;5.65;2.78;;;26.10;88.10;;;;;;5064862;28;20029;-52
2021/11/22 03:51:54;;;;;;;5.07;2.30;;;26.10;87.90;;;;;;5064545;28;20034;-50
2021/11/22 03:54:21;;;;;;;5.53;2.30;;;26.10;87.80;;;;;;5064695;28;20032;-51
2021/11/22 03:56:47;;;;;;;4.35;1.80;;;26.10;87.80;;;;;;5064265;28;20020;-48
2021/11/22 03:59:14;;;;;;;4.10;2.10;;;26.10;88.00;;;;;;5064840;28;20048;-53
2021/11/22 04:01:41;;;;;;;5.28;2.10;;;26.10;87.90;;;;;;5064244;28;20078;-50
2021/11/22 04:04:08;;;;;;;4.70;2.47;;;26.10;88.00;;;;;;5064452;28;20035;-48
2021/11/22 04:06:34;;;;;;;4.65;2.50;;;26.10;88.00;;;;;;5064171;28;20053;-49
2021/11/22 04:09:02;;;;;;;5.35;2.03;;;26.10;88.00;;;;;;5064557;28;20160;-47
2021/11/22 04:11:29;;;;;;;2.08;1.88;;;26.10;87.90;;;;;;5064324;28;20021;-46
2021/11/22 04:13:56;;;;;;;6.47;2.42;;;26.00;88.00;;;;;;5064493;28;20209;-48
2021/11/22 04:16:23;;;;;;;6.63;2.28;;;26.00;88.00;;;;;;5064382;28;20025;-50
2021/11/22 04:18:50;;;;;;;6.15;2.08;;;26.00;88.10;;;;;;5064388;28;20048;-48
2021/11/22 04:21:19;;;;;;;4.28;2.10;;;26.00;88.00;;;;;;5063203;28;20021;-51
2021/11/22 04:23:47;;;;;;;3.63;1.77;;;26.00;88.20;;;;;;5064368;28;20051;-49
2021/11/22 04:26:14;;;;;;;7.20;1.95;;;26.00;88.40;;;;;;5063972;28;20024;-45
2021/11/22 04:28:41;;;;;;;5.45;1.70;;;26.00;88.40;;;;;;5064158;28;20420;-49
2021/11/22 04:31:08;;;;;;;4.43;1.92;;;26.00;88.60;;;;;;5064246;28;20048;-47
2021/11/22 04:33:36;;;;;;;5.53;1.98;;;26.00;88.60;;;;;;5063981;28;20031;-50
2021/11/22 04:36:03;;;;;;;2.30;1.90;;;26.00;88.70;;;;;;5064184;28;20023;-45
2021/11/22 04:38:30;;;;;;;5.13;2.10;;;26.00;88.90;;;;;;5063943;28;20071;-49
2021/11/22 04:40:57;;;;;;;5.55;2.30;;;26.00;89.40;;;;;;5063780;28;20246;-44
2021/11/22 04:43:23;;;;;;;9.23;2.80;;;26.00;89.30;;;;;;5063869;28;20086;-43
2021/11/22 04:45:50;;;;;;;6.07;2.53;;;26.00;89.30;;;;;;5064147;28;20033;-48
2021/11/22 04:48:16;;;;;;;4.97;2.25;;;26.00;89.30;;;;;;5063902;28;20036;-49
2021/11/22 04:50:43;;;;;;;3.88;1.98;;;25.90;89.30;;;;;;5064213;28;20025;-50
2021/11/22 04:53:10;;;;;;;5.00;2.30;;;25.90;89.10;;;;;;5064552;28;20020;-50
2021/11/22 04:55:36;;;;;;;4.35;2.13;;;25.90;89.00;;;;;;5068027;28;20024;-46
2021/11/22 04:58:04;;;;;;;4.65;2.38;;;25.90;89.00;;;;;;5068137;28;20016;-47
2021/11/22 05:00:31;;;;;;;3.33;1.88;;;25.90;89.00;;;;;;5067886;28;20017;-51
2021/11/22 05:02:57;;;;;;;3.38;2.00;;;25.90;89.10;;;;;;5067636;28;20021;-44
2021/11/22 05:05:24;;;;;;;4.72;1.98;;;25.90;89.10;;;;;;5067895;28;20060;-46
2021/11/22 05:07:51;;;;;;;3.85;2.13;;;25.90;89.30;;;;;;5067893;28;20336;-44
2021/11/22 05:10:21;;;;;;;8.57;2.63;;;25.80;89.30;;;;;;5067739;28;20037;-48
2021/11/22 05:12:47;;;;;;;5.15;2.13;;;25.90;89.30;;;;;;5067819;28;20078;-44
2021/11/22 05:15:14;;;;;;;5.88;2.10;;;25.90;89.50;;;;;;5067610;28;20028;-45
2021/11/22 05:17:41;;;;;;;2.60;2.00;;;25.80;89.60;;;;;;5067603;28;20021;-44
2021/11/22 05:20:08;;;;;;;2.63;2.05;;;25.80;89.60;;;;;;5068162;28;20025;-47
2021/11/22 05:22:34;;;;;;;5.88;2.15;;;25.80;89.60;;;;;;5067606;28;20080;-52
2021/11/22 05:25:03;;;;;;;2.45;2.00;;;25.80;89.50;;;;;;5067703;28;20029;-44
2021/11/22 05:27:31;;;;;;;4.03;1.95;;;25.80;89.40;;;;;;5067486;28;20029;-50
2021/11/22 05:29:58;;;;;;;5.90;2.30;;;25.80;89.30;;;;;;5068009;28;20101;-44
2021/11/22 05:32:25;;;;;;;7.35;2.20;;;25.80;89.40;;;;;;5067216;28;20067;-45
2021/11/22 05:34:54;;;;;;;3.60;2.00;;;25.80;89.40;;;;;;5068180;28;20032;-50
2021/11/22 05:37:21;;;;;;;4.63;1.90;;;25.80;89.40;;;;;;5067469;28;20033;-46
2021/11/22 05:39:48;;;;;;;4.07;2.10;;;25.80;89.50;;;;;;5068133;28;20087;-45
2021/11/22 05:42:18;;;;;;;3.35;1.70;;;25.80;89.60;;;;;;5067230;28;20205;-44
2021/11/22 05:44:44;;;;;;;6.75;2.00;;;25.70;89.70;;;;;;5067707;28;20017;-48
2021/11/22 05:47:12;;;;;;;4.13;2.00;;;25.80;89.80;;;;;;5067218;28;20020;-44
2021/11/22 05:49:40;;;;;;;7.18;2.20;;;25.80;89.70;;;;;;5067565;28;20024;-44
2021/11/22 05:52:09;;;;;;;5.82;1.98;;;25.70;89.70;;;;;;5067544;28;20025;-46
2021/11/22 05:54:44;;;;;;;7.40;2.20;;;25.70;89.70;;;;;;5067377;28;20197;-45
2021/11/22 05:57:11;;;;;;;5.25;1.88;;;25.70;89.50;;;;;;5067058;28;20296;-50
2021/11/22 05:59:38;;;;;;;5.13;1.80;;;25.70;89.50;;;;;;5066677;28;20020;-50
2021/11/22 06:02:04;;;;;;;4.90;2.17;;;25.60;89.30;;;;;;5066858;28;20032;-45
2021/11/22 06:04:31;;;;;;;6.07;1.90;;;25.60;89.20;;;;;;5066919;28;20024;-48
2021/11/22 06:06:57;;;;;;;4.28;2.00;;;25.60;89.20;;;;;;5066331;28;20049;-52
2021/11/22 06:09:24;;;;;;;4.15;1.83;;;25.60;89.40;;;;;;5066756;28;20029;-50
2021/11/22 06:11:50;;;;;;;5.68;1.90;;;25.60;89.30;;;;;;5066877;28;20017;-44
2021/11/22 06:14:17;;;;;;;4.55;1.80;;;25.60;89.30;;;;;;5066947;28;20028;-47
2021/11/22 06:16:43;;;;;;;3.95;2.17;;;25.60;89.10;;;;;;5066638;28;20021;-44
2021/11/22 06:19:10;;;;;;;4.65;2.25;;;25.60;89.20;;;;;;5067014;28;20028;-46
2021/11/22 06:21:37;;;;;;;4.63;2.00;;;25.60;89.20;;;;;;5066870;28;20054;-49
2021/11/22 06:24:04;;;;;;;5.53;1.92;;;25.60;89.10;;;;;;5066995;28;20036;-54
2021/11/22 06:26:32;;;;;;;4.00;2.03;;;25.60;89.10;;;;;;5066660;28;20446;-52
2021/11/22 06:28:59;;;;;;;9.40;2.35;;;25.60;89.00;;;;;;5066472;28;20070;-51
2021/11/22 06:31:26;;;;;;;3.85;2.10;;;25.60;89.00;;;;;;5066294;28;20025;-51
2021/11/22 06:33:53;;;;;;;4.07;2.00;;;25.60;88.90;;;;;;5066378;28;20024;-56
2021/11/22 06:36:20;;;;;;;3.15;1.85;;;25.60;88.80;;;;;;5066436;28;20040;-45
2021/11/22 06:38:46;;;;;;;4.88;2.00;;;25.60;88.60;;;;;;5066479;28;20025;-47
2021/11/22 06:41:13;;;;;;;5.07;2.30;;;25.60;88.50;;;;;;5066423;28;20162;-44
2021/11/22 06:43:39;;;;;;;4.80;2.05;;;25.60;88.60;;;;;;5066273;28;20021;-45
2021/11/22 06:46:06;;;;;;;3.47;2.00;;;25.60;88.60;;;;;;5065759;28;20317;-43
2021/11/22 06:48:33;;;;;;;5.90;2.20;;;25.50;88.50;;;;;;5065963;28;20028;-46
2021/11/22 06:50:59;;;;;;;8.13;1.90;;;25.50;88.40;;;;;;5066223;28;20021;-46
2021/11/22 06:53:26;;;;;;;4.65;1.83;;;25.50;88.20;;;;;;5065967;28;20025;-47
2021/11/22 06:55:53;;;;;;;2.75;1.88;;;25.50;88.10;;;;;;5065992;28;20028;-45
2021/11/22 06:58:19;;;;;;;4.32;1.90;;;25.50;87.90;;;;;;5066221;28;20147;-47
2021/11/22 07:00:46;;;;;;;3.97;2.00;;;25.60;88.00;;;;;;5065848;28;20209;-46
2021/11/22 07:03:13;;;;;;;5.22;1.92;;;25.50;87.90;;;;;;5065759;28;20096;-44
2021/11/22 07:05:39;;;;;;;4.53;1.70;;;25.50;87.90;;;;;;5065584;28;20078;-47
2021/11/22 07:08:08;;;;;;;2.33;1.75;;;25.50;87.80;;;;;;5065031;28;20021;-46
2021/11/22 07:10:35;;;;;;;3.08;1.55;;;25.50;87.80;;;;;;5065243;28;20025;-44
2021/11/22 07:13:02;;;;;;;3.08;1.50;;;25.50;87.80;;;;;;5065300;28;20025;-48
2021/11/22 07:15:35;;;;;;;6.63;1.55;;;25.50;87.80;;;;;;5064739;28;20017;-45
2021/11/22 07:18:03;;;;;;;5.30;1.42;;;25.50;87.70;;;;;;5064695;28;20127;-46
2021/11/22 07:20:30;;;;;;;5.18;1.70;;;25.50;87.60;;;;;;5065101;28;20017;-43
2021/11/22 07:22:57;;;;;;;2.58;1.48;;;25.50;87.50;;;;;;5064810;28;20059;-50
2021/11/22 07:25:24;;;;;;;7.40;1.58;;;25.50;87.30;;;;;;5065095;28;20024;-46
2021/11/22 07:27:52;;;;;;;5.63;1.67;;;25.50;87.20;;;;;;5064901;28;20335;-47
2021/11/22 07:30:21;;;;;;;3.33;1.55;;;25.50;87.60;;;;;;5064755;28;20044;-47
2021/11/22 07:32:53;;;;;;;3.53;1.83;;;25.50;87.70;;;;;;5064721;28;20025;-44
2021/11/22 07:35:24;;;;;;;3.42;1.70;;;25.50;87.90;;;;;;5064769;28;20025;-48
2021/11/22 07:37:51;;;;;;;4.13;1.80;;;25.50;88.00;;;;;;5064894;28;20371;-46
2021/11/22 07:40:22;;;;;;;6.35;1.90;;;25.50;88.20;;;;;;5064708;28;20021;-46
2021/11/22 07:42:50;;;;;;;4.55;1.55;;;25.50;88.20;;;;;;5064909;28;20082;-48
2021/11/22 07:45:17;;;;;;;3.35;1.58;;;25.50;88.20;;;;;;5064613;28;20233;-56
2021/11/22 07:47:44;;;;;;;5.38;2.17;;;25.50;88.40;;;;;;5064553;28;20025;-52
2021/11/22 07:50:10;;;;;;;3.70;2.00;;;25.50;88.40;;;;;;5064926;28;20029;-47
2021/11/22 07:52:37;;;;;;;3.50;1.73;;;25.50;88.40;;;;;;5064618;28;20016;-49
2021/11/22 07:55:04;;;;;;;4.43;1.85;;;25.50;88.40;;;;;;5064831;28;20092;-47
2021/11/22 07:57:31;;;;;;;6.80;1.60;;;25.50;88.60;;;;;;5064528;28;20309;-46
2021/11/22 07:59:58;;;;;;;5.10;2.15;;;25.50;88.60;;;;;;5064780;28;20045;-45
2021/11/22 08:02:24;;;;;;;3.70;1.60;;;25.40;88.40;;;;;;5064331;28;20031;-49
2021/11/22 08:04:51;;;;;;;4.95;2.08;;;25.40;88.30;;;;;;5064581;28;20350;-49
2021/11/22 08:07:21;;;;;;;3.70;1.50;;;25.40;88.20;;;;;;5064194;28;20025;-47
2021/11/22 08:09:57;;;;;;;2.72;1.60;;;25.40;88.00;;;;;;5064606;28;20131;-44
2021/11/22 08:12:27;;;;;;;4.43;1.50;;;25.40;87.80;;;;;;5064188;28;20079;-45
2021/11/22 08:15:03;;;;;;;5.15;1.73;;;25.30;87.80;;;;;;5064499;28;20091;-51
2021/11/22 08:17:30;;;;;;;7.63;1.90;;;25.30;87.80;;;;;;5064029;28;20332;-44
2021/11/22 08:19:57;;;;;;;3.55;1.65;;;25.30;87.70;;;;;;5064457;28;20321;-46
2021/11/22 08:22:25;;;;;;;4.05;1.63;;;25.30;87.50;;;;;;5063939;28;20084;-45
2021/11/22 08:24:53;;;;;;;6.90;1.70;;;25.30;87.50;;;;;;5064450;28;20084;-52
2021/11/22 08:27:21;;;;;;;4.95;1.73;;;25.30;87.30;;;;;;5063853;28;20485;-47
2021/11/22 08:29:48;;;;;;;5.15;1.70;;;25.30;87.30;;;;;;5063425;28;20029;-54
2021/11/22 08:32:15;;;;;;;7.55;2.03;;;25.30;87.30;;;;;;5063865;28;20237;-57
2021/11/22 08:34:42;;;;;;;5.45;1.42;;;25.30;87.40;;;;;;5064442;28;20088;-46
2021/11/22 08:37:09;;;;;;;3.90;1.60;;;25.30;87.60;;;;;;5063908;28;20024;-46
2021/11/22 08:39:36;;;;;;;6.28;1.80;;;25.30;87.80;;;;;;5064237;28;20021;-45
2021/11/22 08:42:03;;;;;;;4.32;1.67;;;25.30;88.00;;;;;;5063865;28;20229;-47
2021/11/22 08:44:31;;;;;;;3.42;1.73;;;25.20;88.00;;;;;;5064138;28;20107;-50
2021/11/22 08:46:58;;;;;;;4.03;1.67;;;25.20;88.00;;;;;;5063774;28;20084;-43
2021/11/22 08:49:25;;;;;;;7.78;1.55;;;25.20;88.10;;;;;;5064071;28;20025;-46
2021/11/22 08:51:52;;;;;;;4.00;1.63;;;25.20;88.20;;;;;;5063711;28;20317;-44
2021/11/22 08:54:21;;;;;;;6.80;1.55;;;25.30;88.00;;;;;;5064031;28;20029;-52
2021/11/22 08:56:48;;;;;;;3.50;1.80;;;25.20;87.80;;;;;;5063811;28;20083;-50
2021/11/22 08:59:16;;;;;;;4.55;1.70;;;25.20;87.60;;;;;;5064104;28;20092;-48
2021/11/22 09:01:43;;;;;;;3.97;1.58;;;25.20;87.60;;;;;;5063772;28;20021;-48
2021/11/22 09:04:10;;;;;;;3.95;1.88;;;25.20;87.50;;;;;;5064142;28;20029;-52
2021/11/22 09:06:36;;;;;;;3.45;1.50;;;25.20;87.40;;;;;;5063630;28;20094;-50
2021/11/22 09:09:08;;;;;;;4.03;1.80;;;25.20;87.20;;;;;;5063811;28;20371;-47
2021/11/22 09:11:38;;;;;;;6.95;2.00;;;25.20;87.10;;;;;;5063984;28;20020;-47
2021/11/22 09:14:05;;;;;;;4.28;1.55;;;25.20;87.10;;;;;;5063392;28;20036;-53
2021/11/22 09:16:34;;;;;;;5.50;1.52;;;25.10;87.30;;;;;;5063238;28;20025;-46
2021/11/22 09:19:03;;;;;;;4.90;2.00;;;25.10;87.40;;;;;;5063824;28;20186;-48
2021/11/22 09:21:29;;;;;;;2.92;1.70;;;25.10;87.50;;;;;;5063593;28;20021;-45
2021/11/22 09:23:57;;;;;;;3.70;1.48;;;25.10;87.60;;;;;;5063450;28;20059;-51
2021/11/22 09:26:23;;;;;;;4.78;1.83;;;25.10;87.70;;;;;;5063405;28;20013;-50
2021/11/22 09:28:50;;;;;;;6.82;1.75;;;25.10;87.80;;;;;;5063480;28;20395;-47
2021/11/22 09:31:17;;;;;;;4.32;1.88;;;25.10;87.80;;;;;;5063277;28;20079;-53
2021/11/22 09:33:46;;;;;;;5.32;2.10;;;25.10;87.80;;;;;;5063426;28;20205;-48
2021/11/22 09:36:13;;;;;;;4.65;2.20;;;25.10;87.90;;;;;;5063169;28;20025;-51
2021/11/22 09:38:40;;;;;;;5.20;2.08;;;25.10;88.10;;;;;;5063456;28;20127;-50
2021/11/22 09:41:08;;;;;;;6.68;2.00;;;25.10;88.10;;;;;;5066958;28;20027;-45
2021/11/22 09:43:35;;;;;;;4.03;2.00;;;25.10;88.10;;;;;;5067107;28;20029;-47
2021/11/22 09:46:02;;;;;;;5.32;1.90;;;25.10;88.10;;;;;;5067061;28;20013;-45
2021/11/22 09:48:29;;;;;;;5.60;2.25;;;25.10;88.10;;;;;;5067231;28;20209;-49
2021/11/22 09:50:56;;;;;;;7.28;2.20;;;25.10;88.20;;;;;;5066831;28;20021;-46
2021/11/22 09:53:23;;;;;;;4.90;2.03;;;25.10;88.10;;;;;;5066646;28;20029;-47
2021/11/22 09:55:53;;;;;;;4.25;1.80;;;25.00;87.90;;;;;;5067053;28;20025;-46
2021/11/22 09:58:20;;;;;;;5.00;1.67;;;25.00;88.00;;;;;;5066992;28;20121;-45
2021/11/22 10:00:53;;;;;;;2.55;1.60;;;25.00;88.00;;;;;;5066585;28;20017;-49
2021/11/22 10:03:23;;;;;;;3.05;1.55;;;25.00;87.90;;;;;;5065491;28;20029;-43
2021/11/22 10:05:58;;;;;;;7.50;1.50;;;25.00;87.70;;;;;;5066409;28;20049;-45
2021/11/22 10:08:26;;;;;;;4.07;1.65;;;25.00;87.60;;;;;;5066767;28;20122;-49
2021/11/22 10:10:58;;;;;;;4.90;1.70;;;25.00;87.50;;;;;;5066512;28;20047;-47
2021/11/22 10:13:28;;;;;;;4.05;1.38;;;25.00;87.40;;;;;;5066537;28;20029;-52
2021/11/22 10:16:17;;;;;;;4.65;1.55;;;25.00;87.40;;;;;;5066341;28;20220;-51
2021/11/22 10:18:46;;;;;;;2.88;1.17;;;25.00;87.50;;;;;;5066186;28;20036;-46
2021/11/22 10:21:15;;;;;;;2.97;1.38;;;25.00;87.60;;;;;;5066178;28;20190;-46
2021/11/22 10:23:44;;;;;;;4.53;1.30;;;24.90;87.40;;;;;;5066388;28;20017;-46
2021/11/22 10:26:16;;;;;;;4.03;1.25;;;24.90;87.30;;;;;;5066133;28;20025;-48
2021/11/22 10:28:49;;;;;;;6.80;1.30;;;24.90;87.10;;;;;;5066298;28;20301;-47
2021/11/22 10:31:20;;;;;;;3.25;1.42;;;24.90;87.20;;;;;;5065910;28;20052;-46
2021/11/22 10:33:48;;;;;;;4.22;1.40;;;24.90;87.00;;;;;;5066166;28;20029;-47
2021/11/22 10:36:18;;;;;;;3.38;1.40;;;24.90;87.10;;;;;;5065858;28;20020;-46
2021/11/22 10:38:50;;;;;;;4.32;1.40;;;24.90;86.80;;;;;;5065921;28;20029;-48
2021/11/22 10:41:32;;;;;;;3.20;1.45;;;24.90;86.90;;;;;;5065908;28;20044;-46
2021/11/22 10:44:05;;;;;;;7.03;1.60;;;24.90;87.10;;;;;;5066024;28;20309;-52
2021/11/22 10:46:46;;;;;;;3.40;1.42;;;24.90;87.20;;;;;;5065790;28;20029;-51
2021/11/22 10:49:32;;;;;;;4.97;1.60;;;24.80;87.20;;;;;;5065760;28;20238;-50
2021/11/22 10:52:25;;;;;;;2.55;1.83;;;24.90;87.10;;;;;;5064514;28;20027;-50
2021/11/22 10:55:10;;;;;;;9.00;3.00;;;24.90;86.90;;;;;;5065836;28;20108;-48
2021/11/22 10:57:42;;;;;;;6.63;3.10;;;24.90;86.60;;;;;;5065363;28;20032;-48
2021/11/22 11:00:20;;;;;;;6.53;3.38;;;24.90;86.50;;;;;;5065578;28;20025;-48
2021/11/22 11:02:48;;;;;;;9.90;3.40;;;24.90;86.30;;;;;;5065458;28;20030;-47
2021/11/22 11:05:36;;;;;;;5.05;2.65;;;24.90;86.20;;;;;;5065761;28;20048;-45
2021/11/22 11:08:05;;;;;;;4.20;2.70;;;24.90;86.00;;;;;;5065226;28;20013;-46
2021/11/22 11:10:33;;;;;;;3.88;2.50;;;24.90;86.20;;;;;;5065445;28;20029;-49
2021/11/22 11:13:01;;;;;;;4.43;2.40;;;24.90;86.40;;;;;;5065240;28;20218;-44
2021/11/22 11:15:29;;;;;;;6.82;2.17;;;25.00;86.50;;;;;;5065310;28;20017;-44
2021/11/22 11:17:56;;;;;;;7.28;2.58;;;25.00;86.40;;;;;;5065071;28;20027;-43
2021/11/22 11:20:24;;;;;;;6.55;2.45;;;25.00;86.30;;;;;;5065216;28;20013;-48
2021/11/22 11:22:52;;;;;;;7.03;2.38;;;25.00;86.30;;;;;;5065371;28;20317;-51
2021/11/22 11:25:22;;;;;;;7.55;2.67;;;25.00;85.50;;;;;;5065511;28;20225;-48
2021/11/22 11:27:50;;;;;;;4.95;2.50;;;25.10;85.60;;;;;;5064046;28;20344;-44
2021/11/22 11:30:20;;;;;;;6.35;3.05;;;25.10;85.70;;;;;;5065220;28;20230;-46
2021/11/22 11:32:48;;;;;;;6.28;3.03;;;25.10;86.00;;;;;;5064847;28;20021;-45
2021/11/22 11:35:18;;;;;;;5.60;2.78;;;25.10;85.60;;;;;;5065746;28;20368;-48
2021/11/22 11:38:15;;;;;;;7.63;2.42;;;25.10;85.70;;;;;;5065080;28;20305;-44
2021/11/22 11:41:07;;;;;;;5.78;2.90;;;25.10;85.80;;;;;;5065170;28;20025;-52
2021/11/22 11:43:36;;;;;;;8.43;3.60;;;25.20;86.20;;;;;;5063068;28;20088;-48
2021/11/22 11:46:30;;;;;;;5.13;3.35;;;25.20;86.30;;;;;;5063514;28;20025;-49
2021/11/22 11:49:00;;;;;;;5.85;3.13;;;25.20;86.50;;;;;;5064789;28;20047;-49
2021/11/22 11:51:38;;;;;;;6.38;3.45;;;25.20;86.80;;;;;;5064530;28;20099;-48
2021/11/22 11:54:17;;;;;;;5.82;3.42;;;25.20;86.70;;;;;;5064888;28;20028;-54
2021/11/22 11:56:47;;;;;;;8.25;3.80;;;25.30;86.90;;;;;;5064577;28;20078;-51
2021/11/22 11:59:26;;;;;;;5.82;3.78;;;25.30;87.10;;;;;;5064873;28;20102;-46
2021/11/22 12:02:25;;;;;;;5.88;3.63;;;25.30;87.30;;;;;;5064256;28;20021;-46
2021/11/22 12:04:59;;;;;;;8.75;4.57;;;25.30;87.00;;;;;;5064671;28;20028;-49
2021/11/22 12:07:38;;;;;;;7.43;3.58;;;25.30;87.20;;;;;;5064190;28;20051;-45
2021/11/22 12:10:34;;;;;;;9.68;3.70;;;25.30;87.20;;;;;;5064784;28;20138;-45
2021/11/22 12:13:00;;;;;;;6.35;3.40;;;25.30;86.80;;;;;;5064403;28;20048;-50
2021/11/22 12:15:51;;;;;;;5.20;3.28;;;25.30;86.80;;;;;;5064060;28;20025;-47
2021/11/22 12:18:34;;;;;;;4.93;2.75;;;25.40;86.60;;;;;;5063868;28;20039;-50
2021/11/22 12:21:20;;;;;;;5.88;2.78;;;25.40;86.50;;;;;;5064192;28;20029;-52
2021/11/22 12:23:50;;;;;;;5.93;2.17;;;25.40;86.30;;;;;;5064414;28;20024;-49
2021/11/22 12:26:35;;;;;;;4.32;2.42;;;25.40;86.20;;;;;;5064060;28;20309;-55
2021/11/22 12:29:04;;;;;;;5.70;2.20;;;25.50;86.30;;;;;;5064025;28;20052;-49
2021/11/22 12:31:39;;;;;;;2.53;2.00;;;25.50;86.10;;;;;;5063842;28;20331;-45
2021/11/22 12:34:10;;;;;;;6.35;2.28;;;25.50;86.00;;;;;;5064221;28;20246;-53
2021/11/22 12:36:39;;;;;;;5.95;2.45;;;25.50;86.00;;;;;;5063683;28;20055;-50
2021/11/22 12:39:13;;;;;;;2.88;2.03;;;25.50;86.00;;;;;;5064079;28;20021;-46
2021/11/22 12:41:41;;;;;;;3.35;2.03;;;25.50;86.20;;;;;;5063792;28;20021;-49
2021/11/22 12:44:20;;;;;;;4.00;2.13;;;25.50;86.20;;;;;;5064318;28;20029;-47
2021/11/22 12:46:54;;;;;;;2.72;1.73;;;25.60;86.50;;;;;;5063827;28;20033;-46
2021/11/22 12:49:38;;;;;;;4.32;2.10;;;25.60;86.30;;;;;;5063820;28;20032;-45
2021/11/22 12:52:15;;;;;;;6.05;2.00;;;25.60;86.00;;;;;;5063984;28;20056;-49
2021/11/22 12:55:00;;;;;;;5.15;2.20;;;25.60;86.10;;;;;;5064082;28;20029;-51
2021/11/22 12:57:30;;;;;;;7.05;2.03;;;25.70;86.30;;;;;;5063676;28;20051;-52